Cornwall, Connecticut
Current Conditions -  °F | °C
As of 4:15 AM on Friday 19 Dec 2014 (Local Time) from KOXC Reporting Station
Overcast Overcast  
Wind Chill: 30°   Ceiling: 2800
Heat Index: 34°   Visibility: 10mi
Dew Point: 21°   Wind: 5mph
Humidity: 60%   Direction: 340°NNW
Pressure: 29.92"   Gusts: NA
Location:  41.84°N, 73.33°W
Report Text: KOXC 190915Z 34004KT 10SM BKN028 OVC034 01/M06 A2992 RMK AO1
Loading
Personal Weather Stations






























Interactive Weather Map New forecast layout! Learn more

10-Day Weather Forecast

Advertisements
Track Severe Weather on mobile